createdAt,value
2022-09-24T00:01:40.724Z,100509.44
2022-09-24T00:04:10.058Z,100504.25
2022-09-24T00:06:38.938Z,100492.66
2022-09-24T00:09:06.824Z,100498.13
2022-09-24T00:11:35.425Z,100498.31
2022-09-24T00:14:06.832Z,100495.88
2022-09-24T00:16:34.929Z,100484.09
2022-09-24T00:19:03.660Z,100484.72
2022-09-24T00:21:32.261Z,100475.69
2022-09-24T00:24:01.460Z,100489.28
2022-09-24T00:26:46.861Z,100484.78
2022-09-24T00:29:17.359Z,100485.09
2022-09-24T00:31:45.284Z,100493.38
2022-09-24T00:34:13.048Z,100495.19
2022-09-24T00:36:40.908Z,100493.91
2022-09-24T00:39:08.953Z,100490.84
2022-09-24T00:41:37.710Z,100486.63
2022-09-24T00:44:20.295Z,100484.19
2022-09-24T00:46:49.615Z,100487.41
2022-09-24T00:49:18.064Z,100489.97
2022-09-24T00:51:48.003Z,100485.72
2022-09-24T00:54:18.057Z,100481.84
2022-09-24T00:56:48.248Z,100484.72
2022-09-24T00:59:17.802Z,100479.56
2022-09-24T01:01:45.858Z,100478.06
2022-09-24T01:04:15.594Z,100474.81
2022-09-24T01:06:43.318Z,100478.69
2022-09-24T01:09:11.274Z,100476.88
2022-09-24T01:11:45.217Z,100483.50
2022-09-24T01:14:23.674Z,100490.59
2022-09-24T01:16:53.856Z,100484.09
2022-09-24T01:19:34.836Z,100479.25
2022-09-24T01:22:04.702Z,100483.09
2022-09-24T01:24:44.200Z,100478.88
2022-09-24T01:27:14.931Z,100480.50
2022-09-24T01:29:53.162Z,100475.63
2022-09-24T01:32:30.232Z,100474.81
2022-09-24T01:35:02.928Z,100477.25
2022-09-24T01:37:33.998Z,100471.38
2022-09-24T01:40:02.502Z,100475.91
2022-09-24T01:42:31.855Z,100470.25
2022-09-24T01:45:02.067Z,100469.56
2022-09-24T01:47:34.747Z,100472.28
2022-09-24T01:50:03.934Z,100471.16
2022-09-24T01:52:35.124Z,100471.47
2022-09-24T01:55:05.065Z,100472.47
2022-09-24T01:57:34.997Z,100466.00
2022-09-24T02:00:09.598Z,100465.19
2022-09-24T02:02:39.618Z,100462.44
2022-09-24T02:05:12.671Z,100460.94
2022-09-24T02:07:43.424Z,100455.34
2022-09-24T02:10:14.926Z,100458.69
2022-09-24T02:12:44.226Z,100453.03
2022-09-24T02:15:17.313Z,100451.41
2022-09-24T02:17:46.930Z,100452.53
2022-09-24T02:20:16.181Z,100449.28
2022-09-24T02:22:44.905Z,100448.78
2022-09-24T02:25:14.742Z,100446.84
2022-09-24T02:27:42.577Z,100447.84
2022-09-24T02:30:10.896Z,100443.31
2022-09-24T02:32:42.168Z,100441.38
2022-09-24T02:35:10.220Z,100434.88
2022-09-24T02:37:39.763Z,100439.44
2022-09-24T02:40:09.296Z,100432.97
2022-09-24T02:42:37.676Z,100434.41
2022-09-24T02:45:06.311Z,100432.81
2022-09-24T02:47:34.307Z,100423.75
2022-09-24T02:50:03.375Z,100427.31
2022-09-24T02:52:31.083Z,100425.19
2022-09-24T02:54:58.737Z,100430.19
2022-09-24T02:57:26.399Z,100428.56
2022-09-24T02:59:54.339Z,100414.34
2022-09-24T03:02:22.298Z,100415.97
2022-09-24T03:04:50.087Z,100415.97
2022-09-24T03:07:19.126Z,100419.84
2022-09-24T03:09:46.807Z,100411.63
2022-09-24T03:12:14.914Z,100420.66
2022-09-24T03:14:42.685Z,100414.34
2022-09-24T03:17:10.358Z,100423.69
2022-09-24T03:19:38.142Z,100413.84
2022-09-24T03:22:05.795Z,100411.75
2022-09-24T03:24:35.035Z,100407.38
2022-09-24T03:27:04.772Z,100409.59
2022-09-24T03:29:49.512Z,100403.59
2022-09-24T03:32:17.326Z,100409.09
2022-09-24T03:34:45.015Z,100411.31
2022-09-24T03:37:12.679Z,100402.28
2022-09-24T03:39:41.705Z,100402.09
2022-09-24T03:42:09.515Z,100399.34
2022-09-24T03:44:37.394Z,100400.97
2022-09-24T03:47:05.109Z,100395.50
2022-09-24T03:49:32.768Z,100395.38
2022-09-24T03:52:00.414Z,100395.69
2022-09-24T03:54:28.088Z,100388.59
2022-09-24T03:56:57.263Z,100385.34
2022-09-24T03:59:25.078Z,100390.81
2022-09-24T04:01:52.835Z,100390.03
2022-09-24T04:04:20.585Z,100382.91
2022-09-24T04:06:48.233Z,100394.38
2022-09-24T04:09:16.094Z,100385.84
2022-09-24T04:11:44.702Z,100383.91
2022-09-24T04:14:13.750Z,100383.41
2022-09-24T04:16:41.683Z,100379.06
2022-09-24T04:19:09.408Z,100386.78
2022-09-24T04:21:37.660Z,100387.41
2022-09-24T04:24:05.809Z,100383.03
2022-09-24T04:26:33.617Z,100378.72
2022-09-24T04:29:01.494Z,100375.47
2022-09-24T04:31:33.087Z,100371.09
2022-09-24T04:34:01.886Z,100374.47
2022-09-24T04:36:29.692Z,100387.66
2022-09-24T04:38:57.865Z,100376.19
2022-09-24T04:41:25.572Z,100373.47
2022-09-24T04:43:53.287Z,100373.16
2022-09-24T04:46:21.137Z,100379.94
2022-09-24T04:48:50.437Z,100382.19
2022-09-24T04:51:19.351Z,100377.31
2022-09-24T04:53:47.781Z,100382.00
2022-09-24T04:56:15.465Z,100370.22
2022-09-24T04:58:43.347Z,100374.41
2022-09-24T05:01:13.181Z,100361.31
2022-09-24T05:03:41.046Z,100371.47
2022-09-24T05:06:10.105Z,100368.22
2022-09-24T05:08:37.779Z,100372.88
2022-09-24T05:11:05.667Z,100369.66
2022-09-24T05:13:33.829Z,100374.31
2022-09-24T05:16:01.701Z,100374.31
2022-09-24T05:18:29.474Z,100378.56
2022-09-24T05:20:57.149Z,100366.59
2022-09-24T05:23:26.373Z,100364.97
2022-09-24T05:26:12.253Z,100368.84
2022-09-24T05:28:40.834Z,100382.03
2022-09-24T05:31:09.219Z,100365.59
2022-09-24T05:33:37.512Z,100366.41
2022-09-24T05:36:05.436Z,100361.25
2022-09-24T05:38:34.459Z,100372.19
2022-09-24T05:41:03.635Z,100368.94
2022-09-24T05:43:31.747Z,100371.06
2022-09-24T05:45:59.525Z,100371.28
2022-09-24T05:48:27.183Z,100378.06
2022-09-24T05:50:56.295Z,100379.56
2022-09-24T05:53:24.175Z,100382.50
2022-09-24T05:55:53.253Z,100387.03
2022-09-24T05:58:21.040Z,100382.22
2022-09-24T06:00:49.143Z,100383.72
2022-09-24T06:03:17.610Z,100382.31
2022-09-24T06:05:47.107Z,100382.81
2022-09-24T06:08:16.193Z,100380.56
2022-09-24T06:10:45.448Z,100379.34
2022-09-24T06:13:15.107Z,100381.34
2022-09-24T06:15:43.069Z,100373.47
2022-09-24T06:18:11.393Z,100384.97
2022-09-24T06:20:40.093Z,100386.16
2022-09-24T06:23:07.894Z,100392.63
2022-09-24T06:25:35.774Z,100390.38
2022-09-24T06:28:04.929Z,100391.84
2022-09-24T06:30:35.664Z,100390.28
2022-09-24T06:33:05.286Z,100388.75
2022-09-24T06:35:34.639Z,100397.97
2022-09-24T06:38:02.417Z,100400.75
2022-09-24T06:40:35.557Z,100392.38
2022-09-24T06:43:05.094Z,100393.22
2022-09-24T06:45:34.263Z,100408.41
2022-09-24T06:48:02.826Z,100411.72
2022-09-24T06:50:31.690Z,100412.72
2022-09-24T06:52:59.713Z,100408.19
2022-09-24T06:55:27.786Z,100418.19
2022-09-24T06:58:02.425Z,100418.06
2022-09-24T07:00:30.312Z,100414.13
2022-09-24T07:02:59.494Z,100415.91
2022-09-24T07:05:27.284Z,100416.41
2022-09-24T07:07:55.050Z,100416.84
2022-09-24T07:10:25.145Z,100417.00
2022-09-24T07:12:53.137Z,100422.63
2022-09-24T07:15:22.501Z,100417.72
2022-09-24T07:17:50.880Z,100415.69
2022-09-24T07:20:19.973Z,100423.34
2022-09-24T07:22:47.786Z,100415.81
2022-09-24T07:25:15.759Z,100415.22
2022-09-24T07:27:43.516Z,100421.91
2022-09-24T07:30:11.673Z,100432.75
2022-09-24T07:32:39.470Z,100423.59
2022-09-24T07:35:07.691Z,100423.38
2022-09-24T07:37:36.993Z,100421.03
2022-09-24T07:40:04.902Z,100430.44
2022-09-24T07:42:32.762Z,100429.19
2022-09-24T07:45:00.859Z,100425.09
2022-09-24T07:47:28.644Z,100430.75
2022-09-24T07:49:56.649Z,100432.28
2022-09-24T07:52:24.394Z,100429.28
2022-09-24T07:54:54.160Z,100439.28
2022-09-24T07:57:21.890Z,100435.66
2022-09-24T07:59:51.466Z,100442.50
2022-09-24T08:02:19.586Z,100444.09
2022-09-24T08:04:48.193Z,100447.72
2022-09-24T08:07:15.998Z,100441.25
2022-09-24T08:09:43.738Z,100454.06
2022-09-24T08:12:13.054Z,100445.63
2022-09-24T08:14:41.748Z,100446.00
2022-09-24T08:17:09.482Z,100449.41
2022-09-24T08:19:37.222Z,100443.22
2022-09-24T08:22:05.230Z,100435.53
2022-09-24T08:24:32.994Z,100435.91
2022-09-24T08:27:01.043Z,100450.84
2022-09-24T08:29:30.214Z,100440.34
2022-09-24T08:31:57.984Z,100447.19
2022-09-24T08:34:26.010Z,100442.53
2022-09-24T08:36:53.745Z,100448.44
2022-09-24T08:39:21.705Z,100439.59
2022-09-24T08:41:55.959Z,100444.59
2022-09-24T08:44:47.463Z,100437.72
2022-09-24T08:47:24.416Z,100439.84
2022-09-24T08:50:08.038Z,100447.28
2022-09-24T08:52:41.620Z,100444.94
2022-09-24T08:55:13.211Z,100446.50
2022-09-24T08:57:45.635Z,100439.19
2022-09-24T09:00:15.413Z,100437.63
2022-09-24T09:02:47.011Z,100441.09
2022-09-24T09:05:20.585Z,100446.84
2022-09-24T09:07:52.975Z,100441.38
2022-09-24T09:10:28.933Z,100454.75
2022-09-24T09:12:58.905Z,100447.44
2022-09-24T09:15:29.366Z,100445.59
2022-09-24T09:18:00.675Z,100442.81
2022-09-24T09:20:31.207Z,100444.94
2022-09-24T09:23:01.115Z,100460.69
2022-09-24T09:25:31.757Z,100452.16
2022-09-24T09:28:00.843Z,100452.47
2022-09-24T09:30:31.882Z,100452.28
2022-09-24T09:33:10.028Z,100460.34
2022-09-24T09:35:43.203Z,100459.72
2022-09-24T09:38:19.078Z,100461.81
2022-09-24T09:40:50.469Z,100459.91
2022-09-24T09:43:18.850Z,100457.28
2022-09-24T09:45:53.298Z,100461.69
2022-09-24T09:48:24.342Z,100464.88
2022-09-24T09:50:54.293Z,100457.06
2022-09-24T09:53:23.098Z,100462.31
2022-09-24T09:55:55.430Z,100459.25
2022-09-24T09:58:24.435Z,100458.25
2022-09-24T10:00:52.399Z,100455.47
2022-09-24T10:03:24.460Z,100452.47
2022-09-24T10:05:53.797Z,100454.59
2022-09-24T10:08:22.031Z,100445.91
2022-09-24T10:10:56.147Z,100455.53
2022-09-24T10:13:24.695Z,100455.63
2022-09-24T10:15:53.456Z,100458.00
2022-09-24T10:18:29.557Z,100455.41
2022-09-24T10:20:58.106Z,100460.78
2022-09-24T10:23:30.876Z,100457.41
2022-09-24T10:26:00.552Z,100449.63
2022-09-24T10:28:46.189Z,100454.28
2022-09-24T10:31:15.969Z,100452.34
2022-09-24T10:33:46.576Z,100445.59
2022-09-24T10:36:15.858Z,100452.47
2022-09-24T10:38:43.629Z,100448.25
2022-09-24T10:41:15.684Z,100449.81
2022-09-24T10:43:51.100Z,100454.50
2022-09-24T10:46:29.042Z,100460.44
2022-09-24T10:49:02.433Z,100457.34
2022-09-24T10:51:36.609Z,100462.41
2022-09-24T10:54:13.939Z,100458.53
2022-09-24T10:56:46.386Z,100460.94
2022-09-24T10:59:21.650Z,100461.25
2022-09-24T11:01:55.060Z,100457.44
2022-09-24T11:04:36.412Z,100460.53
2022-09-24T11:07:22.186Z,100462.59
2022-09-24T11:09:55.175Z,100463.72
2022-09-24T11:12:30.218Z,100457.00
2022-09-24T11:15:06.796Z,100461.81
2022-09-24T11:17:35.713Z,100454.28
2022-09-24T11:20:21.353Z,100464.97
2022-09-24T11:22:58.954Z,100464.41
2022-09-24T11:25:33.761Z,100459.81
2022-09-24T11:28:07.341Z,100464.78
2022-09-24T11:30:39.412Z,100468.50
2022-09-24T11:33:12.684Z,100465.53
2022-09-24T11:35:48.127Z,100457.50
2022-09-24T11:38:22.409Z,100464.91
2022-09-24T11:40:59.899Z,100465.34
2022-09-24T11:43:37.678Z,100464.47
2022-09-24T11:46:12.980Z,100469.69
2022-09-24T11:48:52.159Z,100475.72
2022-09-24T11:51:26.534Z,100471.16
2022-09-24T11:53:58.526Z,100469.88
2022-09-24T11:56:29.731Z,100466.13
2022-09-24T11:59:00.215Z,100468.25
2022-09-24T12:01:29.665Z,100463.50
2022-09-24T12:03:59.913Z,100466.50
2022-09-24T12:06:31.148Z,100471.56
2022-09-24T12:09:02.841Z,100469.56
2022-09-24T12:11:34.273Z,100469.88
2022-09-24T12:14:04.359Z,100462.97
2022-09-24T12:16:36.959Z,100469.41
2022-09-24T12:19:10.154Z,100471.59
2022-09-24T12:21:40.496Z,100461.94
2022-09-24T12:24:13.552Z,100465.44
2022-09-24T12:26:42.840Z,100455.53
2022-09-24T12:29:40.962Z,100455.31
2022-09-24T12:32:33.924Z,100462.69
2022-09-24T12:35:08.725Z,100459.22
2022-09-24T12:37:39.505Z,100448.25
2022-09-24T12:40:19.039Z,100450.50
2022-09-24T12:42:50.652Z,100453.38
2022-09-24T12:45:21.001Z,100458.66
2022-09-24T12:47:51.259Z,100447.41
2022-09-24T12:50:22.293Z,100455.19
2022-09-24T12:52:50.213Z,100455.03
2022-09-24T12:55:23.500Z,100455.88
2022-09-24T12:57:52.657Z,100452.31
2022-09-24T13:00:38.306Z,100459.00
2022-09-24T13:03:07.208Z,100452.88
2022-09-24T13:05:46.985Z,100456.91
2022-09-24T13:08:25.503Z,100460.47
2022-09-24T13:11:00.501Z,100453.50
2022-09-24T13:13:29.594Z,100455.38
2022-09-24T13:16:00.811Z,100451.66
2022-09-24T13:18:29.425Z,100442.63
2022-09-24T13:20:59.878Z,100449.81
2022-09-24T13:23:31.940Z,100445.16
2022-09-24T13:26:02.905Z,100442.22
2022-09-24T13:28:38.729Z,100437.16
2022-09-24T13:31:11.733Z,100433.59
2022-09-24T13:33:41.462Z,100443.56
2022-09-24T13:36:13.440Z,100441.22
2022-09-24T13:38:46.030Z,100439.94
2022-09-24T13:41:23.037Z,100441.31
2022-09-24T13:43:53.536Z,100442.38
2022-09-24T13:46:21.986Z,100436.47
2022-09-24T13:48:51.933Z,100441.59
2022-09-24T13:51:22.539Z,100433.50
2022-09-24T13:53:53.100Z,100437.63
2022-09-24T13:56:23.173Z,100450.47
2022-09-24T13:58:51.635Z,100444.47
2022-09-24T14:01:20.352Z,100447.69
2022-09-24T14:03:55.638Z,100443.22
2022-09-24T14:06:34.326Z,100452.59
2022-09-24T14:09:02.390Z,100443.03
2022-09-24T14:11:31.651Z,100444.53
2022-09-24T14:14:11.148Z,100441.63
2022-09-24T14:16:39.017Z,100452.81
2022-09-24T14:19:06.992Z,100445.16
2022-09-24T14:21:37.309Z,100445.06
2022-09-24T14:24:06.814Z,100442.47
2022-09-24T14:26:37.678Z,100443.44
2022-09-24T14:29:08.369Z,100443.16
2022-09-24T14:31:43.842Z,100442.53
2022-09-24T14:34:21.923Z,100448.75
2022-09-24T14:36:51.057Z,100443.22
2022-09-24T14:39:18.831Z,100445.75
2022-09-24T14:41:47.941Z,100450.72
2022-09-24T14:44:20.772Z,100451.19
2022-09-24T14:46:51.122Z,100455.22
2022-09-24T14:49:21.242Z,100455.34
2022-09-24T14:51:52.793Z,100448.41
2022-09-24T14:54:22.315Z,100456.31
2022-09-24T14:56:52.159Z,100456.41
2022-09-24T14:59:28.642Z,100454.91
2022-09-24T15:02:04.531Z,100453.28
2022-09-24T15:04:33.045Z,100451.00
2022-09-24T15:07:01.084Z,100448.78
2022-09-24T15:09:29.768Z,100458.44
2022-09-24T15:12:09.278Z,100448.66
2022-09-24T15:14:37.502Z,100456.56
2022-09-24T15:17:10.463Z,100449.56
2022-09-24T15:19:42.982Z,100457.25
2022-09-24T15:22:10.967Z,100450.72
2022-09-24T15:24:38.866Z,100454.59
2022-09-24T15:27:16.133Z,100441.25
2022-09-24T15:29:44.033Z,100446.78
2022-09-24T15:32:15.478Z,100448.94
2022-09-24T15:34:43.405Z,100450.44
2022-09-24T15:37:12.575Z,100443.69
2022-09-24T15:39:46.322Z,100442.91
2022-09-24T15:42:15.620Z,100448.63
2022-09-24T15:44:43.771Z,100444.00
2022-09-24T15:47:11.920Z,100450.19
2022-09-24T15:49:39.730Z,100447.91
2022-09-24T15:52:08.331Z,100450.41
2022-09-24T15:54:36.239Z,100456.25
2022-09-24T15:57:04.262Z,100457.19
2022-09-24T15:59:33.497Z,100449.38
2022-09-24T16:02:03.228Z,100460.09
2022-09-24T16:04:31.111Z,100453.28
2022-09-24T16:06:59.435Z,100455.31
2022-09-24T16:09:27.178Z,100447.69
2022-09-24T16:11:55.329Z,100454.84
2022-09-24T16:14:23.047Z,100463.09
2022-09-24T16:16:52.187Z,100462.16
2022-09-24T16:19:20.111Z,100462.75
2022-09-24T16:21:49.013Z,100471.69
2022-09-24T16:24:16.724Z,100465.22
2022-09-24T16:26:44.516Z,100466.41
2022-09-24T16:29:12.790Z,100463.25
2022-09-24T16:31:40.787Z,100463.59
2022-09-24T16:34:09.996Z,100471.88
2022-09-24T16:36:38.134Z,100468.19
2022-09-24T16:39:06.097Z,100475.88
2022-09-24T16:41:36.890Z,100475.72
2022-09-24T16:44:05.199Z,100473.50
2022-09-24T16:46:33.035Z,100478.50
2022-09-24T16:49:00.839Z,100478.03
2022-09-24T16:51:30.195Z,100483.72
2022-09-24T16:53:57.976Z,100477.13
2022-09-24T16:56:25.950Z,100472.59
2022-09-24T16:58:54.350Z,100477.81
2022-09-24T17:01:22.681Z,100473.59
2022-09-24T17:03:53.614Z,100476.19
2022-09-24T17:06:23.091Z,100472.78
2022-09-24T17:09:09.893Z,100480.09
2022-09-24T17:11:40.004Z,100478.47
2022-09-24T17:14:08.141Z,100475.09
2022-09-24T17:16:35.937Z,100482.53
2022-09-24T17:19:03.824Z,100481.41
2022-09-24T17:21:31.744Z,100486.59
2022-09-24T17:24:00.993Z,100486.09
2022-09-24T17:26:28.730Z,100486.09
2022-09-24T17:28:56.491Z,100489.19
2022-09-24T17:31:25.671Z,100483.69
2022-09-24T17:33:56.014Z,100491.16
2022-09-24T17:36:24.622Z,100485.31
2022-09-24T17:38:52.757Z,100485.66
2022-09-24T17:41:23.104Z,100486.78
2022-09-24T17:43:51.298Z,100496.16
2022-09-24T17:46:21.712Z,100496.00
2022-09-24T17:48:51.222Z,100503.75
2022-09-24T17:51:20.135Z,100499.06
2022-09-24T17:53:48.098Z,100497.63
2022-09-24T17:56:16.061Z,100499.72
2022-09-24T17:58:46.781Z,100499.38
2022-09-24T18:01:15.463Z,100503.59
2022-09-24T18:03:43.278Z,100502.44
2022-09-24T18:06:12.189Z,100504.72
2022-09-24T18:08:40.802Z,100505.38
2022-09-24T18:11:09.873Z,100513.16
2022-09-24T18:13:38.639Z,100510.72
2022-09-24T18:16:09.282Z,100512.97
2022-09-24T18:18:37.365Z,100508.75
2022-09-24T18:21:06.108Z,100516.22
2022-09-24T18:23:34.963Z,100518.63
2022-09-24T18:26:10.637Z,100518.78
2022-09-24T18:28:39.314Z,100524.63
2022-09-24T18:31:09.412Z,100525.25
2022-09-24T18:33:38.721Z,100524.28
2022-09-24T18:36:07.844Z,100526.53
2022-09-24T18:38:35.850Z,100524.09
2022-09-24T18:41:07.490Z,100534.44
2022-09-24T18:43:35.391Z,100529.59
2022-09-24T18:46:04.120Z,100533.31
2022-09-24T18:48:33.579Z,100535.41
2022-09-24T18:51:01.373Z,100528.31
2022-09-24T18:53:31.258Z,100525.69
2022-09-24T18:55:59.617Z,100523.09
2022-09-24T18:58:27.352Z,100532.28
2022-09-24T19:00:58.837Z,100539.25
2022-09-24T19:03:28.308Z,100537.47
2022-09-24T19:06:01.255Z,100540.41
2022-09-24T19:08:30.365Z,100538.13
2022-09-24T19:11:01.849Z,100539.75
2022-09-24T19:13:30.044Z,100537.16
2022-09-24T19:15:57.828Z,100540.53
2022-09-24T19:18:26.275Z,100547.00
2022-09-24T19:20:57.389Z,100542.31
2022-09-24T19:23:26.655Z,100534.19
2022-09-24T19:26:00.441Z,100541.50
2022-09-24T19:28:28.350Z,100541.63
2022-09-24T19:30:56.409Z,100550.69
2022-09-24T19:33:24.730Z,100547.94
2022-09-24T19:35:56.078Z,100551.66
2022-09-24T19:38:25.516Z,100553.75
2022-09-24T19:40:58.869Z,100546.44
2022-09-24T19:43:27.204Z,100547.22
2022-09-24T19:45:55.857Z,100547.56
2022-09-24T19:48:23.680Z,100543.88
2022-09-24T19:50:51.493Z,100543.22
2022-09-24T19:53:19.236Z,100539.28
2022-09-24T19:55:47.150Z,100543.97
2022-09-24T19:58:16.586Z,100553.22
2022-09-24T20:00:44.324Z,100546.09
2022-09-24T20:03:13.200Z,100558.22
2022-09-24T20:05:41.794Z,100557.22
2022-09-24T20:08:12.351Z,100558.84
2022-09-24T20:10:41.066Z,100560.47
2022-09-24T20:13:10.577Z,100568.38
2022-09-24T20:15:39.810Z,100559.34
2022-09-24T20:18:08.144Z,100555.47
2022-09-24T20:20:36.226Z,100555.47
2022-09-24T20:23:03.980Z,100552.22
2022-09-24T20:25:49.250Z,100557.09
2022-09-24T20:28:17.174Z,100559.81
2022-09-24T20:30:46.591Z,100555.81
2022-09-24T20:33:14.409Z,100565.00
2022-09-24T20:35:42.182Z,100569.88
2022-09-24T20:38:10.290Z,100578.59
2022-09-24T20:40:40.667Z,100573.44
2022-09-24T20:43:08.495Z,100566.66
2022-09-24T20:45:39.978Z,100576.66
2022-09-24T20:48:09.269Z,100574.41
2022-09-24T20:50:37.046Z,100577.78
2022-09-24T20:53:04.889Z,100572.66
2022-09-24T20:55:32.654Z,100574.09
2022-09-24T20:58:00.440Z,100580.59
2022-09-24T21:00:34.024Z,100576.09
2022-09-24T21:03:15.198Z,100576.53
2022-09-24T21:05:51.287Z,100573.16
2022-09-24T21:08:19.054Z,100567.16
2022-09-24T21:10:47.139Z,100574.41
2022-09-24T21:13:14.883Z,100570.72
2022-09-24T21:15:42.694Z,100575.63
2022-09-24T21:18:22.753Z,100568.66
2022-09-24T21:20:52.840Z,100573.28
2022-09-24T21:23:21.895Z,100576.53
2022-09-24T21:25:54.356Z,100581.53
2022-09-24T21:28:22.745Z,100575.28
2022-09-24T21:30:56.863Z,100586.09
2022-09-24T21:33:24.763Z,100582.69
2022-09-24T21:35:54.430Z,100583.00
2022-09-24T21:38:22.269Z,100587.03
2022-09-24T21:40:52.932Z,100587.34
2022-09-24T21:43:25.238Z,100590.59
2022-09-24T21:45:55.075Z,100596.88
2022-09-24T21:48:25.910Z,100599.63
2022-09-24T21:50:56.333Z,100595.91
2022-09-24T21:53:24.101Z,100596.84
2022-09-24T21:55:52.038Z,100597.97
2022-09-24T21:58:20.186Z,100596.16
2022-09-24T22:00:47.919Z,100598.41
2022-09-24T22:03:16.023Z,100599.91
2022-09-24T22:05:43.811Z,100601.03
2022-09-24T22:08:13.039Z,100602.66
2022-09-24T22:10:41.183Z,100603.41
2022-09-24T22:13:09.631Z,100600.66
2022-09-24T22:15:37.683Z,100600.53
2022-09-24T22:18:05.571Z,100603.03
2022-09-24T22:20:33.437Z,100598.84
2022-09-24T22:23:01.168Z,100606.28
2022-09-24T22:25:31.274Z,100591.56
2022-09-24T22:27:59.152Z,100601.28
2022-09-24T22:30:27.003Z,100603.53
2022-09-24T22:32:54.795Z,100599.16
2022-09-24T22:35:43.230Z,100600.03
2022-09-24T22:38:12.376Z,100602.09
2022-09-24T22:40:41.545Z,100599.28
2022-09-24T22:43:09.323Z,100600.66
2022-09-24T22:45:37.076Z,100603.66
2022-09-24T22:48:04.889Z,100602.34
2022-09-24T22:50:32.814Z,100597.69
2022-09-24T22:53:01.855Z,100597.53
2022-09-24T22:55:29.790Z,100597.69
2022-09-24T22:57:58.868Z,100599.66
2022-09-24T23:00:26.668Z,100600.91
2022-09-24T23:02:54.605Z,100595.56
2022-09-24T23:05:22.426Z,100601.69
2022-09-24T23:07:50.178Z,100603.63
2022-09-24T23:10:17.958Z,100604.91
2022-09-24T23:12:45.738Z,100596.06
2022-09-24T23:15:15.247Z,100600.22
2022-09-24T23:17:43.080Z,100594.72
2022-09-24T23:20:11.615Z,100596.47
2022-09-24T23:22:39.358Z,100596.16
2022-09-24T23:25:07.839Z,100599.59
2022-09-24T23:27:36.763Z,100598.78
2022-09-24T23:30:04.872Z,100591.28
2022-09-24T23:32:34.015Z,100585.16
2022-09-24T23:35:01.860Z,100591.47
2022-09-24T23:37:29.762Z,100584.47
2022-09-24T23:39:57.647Z,100589.47
2022-09-24T23:42:25.391Z,100592.97
2022-09-24T23:44:53.479Z,100602.06
2022-09-24T23:47:21.219Z,100598.03
2022-09-24T23:49:50.315Z,100599.75
2022-09-24T23:52:18.201Z,100604.94
2022-09-24T23:54:46.101Z,100592.84
2022-09-24T23:57:13.843Z,100602.38
2022-09-24T23:59:41.606Z,100602.00
